Burntisland, United Kingdom
Current Conditions -  °F | °C
As of 1:20 AM on Wednesday 28 Jan 2015 (Local Time) from EGPH Reporting Station
Light Rain Light Rain  
Wind Chill: 37°   Ceiling: 1900
Heat Index: 45°   Visibility: 6mi
Dew Point: 43°   Wind: 20mph
Humidity: 93%   Direction: 230°SW
Pressure: 29.56"   Gusts: NA
Location:  56.06°N, 3.23°W
Report Text: EGPH 280120Z 23017KT 9999 -RA FEW013 BKN019 07/06 Q1001
Loading
Personal Weather Stations






























Interactive Weather Map New forecast layout! Learn more

10-Day Weather Forecast

Advertisements
Track Severe Weather on mobile